Flight Track Log - Related Links

Times and Time Zones

All times are in EDT time to prevent confusion due to time zone crossing. See the TAM3422 flight status page for this flight to view local times or setup timezone preferences in your user account.

Time Position Orientation Groundspeed Altitude Reporting Facility
EDT Latitude Longitude Course Direction KTS MPH feet Rate Location/Type
Sat 02:14:48 PM -19.6320 -42.1010 North  Level FlightAware ADS-B
Sat 02:15:03 PM -19.6320 -42.0030 90° East 368 Level FlightAware ADS-B
Sat 02:15:38 PM -19.6320 -42.1020 270° West 379 Level FlightAware ADS-B
Sat 02:15:58 PM -19.6320 -42.0040 90° East 952 1096 408 Level FlightAware ADS-B
Sat 02:17:09 PM -19.6320 -42.0050 90° East 408 470 427 Level FlightAware ADS-B
Sat 02:17:33 PM -19.6320 -42.0050 90° East 952 1096 510 Level FlightAware ADS-B
Sat 02:18:09 PM -19.6320 -42.0050 90° East 740 852 545 Level FlightAware ADS-B
Sat 02:19:44 PM -19.6360 -42.0980 269° West 971 1117 610 Level FlightAware ADS-B
Sat 02:20:39 PM -19.6390 -41.9930 90° East 886 Level FlightAware ADS-B
Sat 02:20:48 PM -19.6400 -41.9910 118° Southeast 1,200 Level FlightAware ADS-B
Sat 02:22:04 PM -19.6440 -42.0860 269° West 1,274 Level FlightAware ADS-B
Sat 02:22:33 PM -19.6410 -42.0930 289° West 93 107 2,657 Level FlightAware ADS-B
Sat 02:22:48 PM -19.6350 -42.1090 292° West 234 269 4,537 Level FlightAware ADS-B
Sat 02:23:03 PM -19.6270 -42.1310 291° West 253 291 7,154 Level FlightAware ADS-B
Sat 02:23:14 PM -19.6200 -43.9810 270° West 178 205 3,100 7,400 Climbing FlightAware ADS-B
Sat 02:23:33 PM -19.6080 -43.9920 319° Northwest 184 212 3,700 1,543 Climbing FlightAware ADS-B
Sat 02:23:49 PM -19.5970 -44.0010 322° Northwest 199 229 4,000 1,029 Climbing FlightAware ADS-B
Sat 02:24:08 PM -19.5840 -44.0160 313° West 218 251 4,300 923 Climbing FlightAware ADS-B
Sat 02:24:28 PM -19.5690 -44.0320 315° West 245 282 4,600 1,800 Climbing FlightAware ADS-B
Sat 02:24:48 PM -19.5510 -44.0470 322° Northwest 246 283 5,500 2,903 Climbing FlightAware ADS-B
Sat 02:24:59 PM -19.5390 -44.0490 351° North 240 276 6,100 3,000 Climbing FlightAware ADS-B
Sat 02:25:20 PM -19.5180 -44.0390 24° Northeast 238 274 7,100 2,769 Climbing FlightAware ADS-B
Sat 02:25:25 PM -19.5150 -44.0360 43° Northeast 242 278 7,300 1,875 Climbing FlightAware ADS-B
Sat 02:25:36 PM -19.5100 -44.0280 56° Northeast 249 287 7,600 1,800 Climbing FlightAware ADS-B
Sat 02:25:45 PM -19.5060 -44.0150 72° East 254 292 7,900 1,448 Climbing FlightAware ADS-B
Sat 02:26:05 PM -19.5020 -43.9890 81° East 277 319 8,300 1,600 Climbing FlightAware ADS-B
Sat 02:26:30 PM -19.4960 -43.9520 80° East 292 336 9,100 2,133 Climbing FlightAware ADS-B
Sat 02:26:50 PM -19.4920 -43.9280 80° East 295 339 9,900 1,607 Climbing FlightAware ADS-B
Sat 02:27:26 PM -19.4830 -43.8730 80° East 327 376 10,600 1,059 Climbing FlightAware ADS-B
Sat 02:27:58 PM -19.4710 -43.8150 78° East 357 411 11,100 1,522 Climbing FlightAware ADS-B
Sat 02:28:33 PM -19.4600 -43.7550 79° East 367 422 12,300 2,028 Climbing FlightAware ADS-B
Sat 02:29:09 PM -19.4480 -43.6920 79° East 376 433 13,500 2,000 Climbing FlightAware ADS-B
Sat 02:29:48 PM -19.4340 -43.6190 79° East 383 441 14,800 2,000 Climbing FlightAware ADS-B
Sat 02:30:18 PM -19.4240 -43.5630 79° East 388 447 15,800 2,031 Climbing FlightAware ADS-B
Sat 02:30:53 PM -19.4120 -43.4980 79° East 389 448 17,000 1,840 Climbing FlightAware ADS-B
Sat 02:31:33 PM -19.3930 -43.4240 75° East 396 456 18,100 1,543 Climbing FlightAware ADS-B
Sat 02:32:03 PM -19.3720 -43.3700 68° East 401 461 18,800 1,477 Climbing FlightAware ADS-B
Sat 02:32:38 PM -19.3470 -43.3060 68° East 407 468 19,700 1,521 Climbing FlightAware ADS-B
Sat 02:33:14 PM -19.3210 -43.2410 67° East 411 473 20,600 1,440 Climbing FlightAware ADS-B
Sat 02:33:53 PM -19.2920 -43.1660 68° East 417 480 21,500 1,391 Climbing FlightAware ADS-B
Sat 02:34:23 PM -19.2700 -43.1090 68° East 421 484 22,200 1,200 Climbing FlightAware ADS-B
Sat 02:34:58 PM -19.2430 -43.0420 67° East 429 494 22,800 1,120 Climbing FlightAware ADS-B
Sat 02:35:38 PM -19.2130 -42.9640 68° East 435 501 23,600 1,184 Climbing FlightAware ADS-B
Sat 02:36:14 PM -19.1860 -42.8940 68° East 440 506 24,300 1,286 Climbing FlightAware ADS-B
Sat 02:36:48 PM -19.1580 -42.8250 67° East 442 509 25,100 1,304 Climbing FlightAware ADS-B
Sat 02:37:23 PM -19.1310 -42.7550 68° East 447 514 25,800 1,200 Climbing FlightAware ADS-B
Sat 02:37:58 PM -19.1030 -42.6840 67° East 449 517 26,500 1,183 Climbing FlightAware ADS-B
Sat 02:38:34 PM -19.0750 -42.6130 67° East 452 520 27,200 935 Climbing FlightAware ADS-B
Sat 02:39:15 PM -19.0420 -42.5300 67° East 460 529 27,700 880 Climbing FlightAware ADS-B
Sat 02:39:49 PM -19.0140 -42.4570 68° East 465 535 28,300 971 Climbing FlightAware ADS-B
Sat 02:40:23 PM -18.9850 -42.3850 67° East 469 540 28,800 1,114 Climbing FlightAware ADS-B
Sat 02:40:59 PM -18.9550 -42.3100 67° East 468 539 29,600 1,268 Climbing FlightAware ADS-B
Sat 02:41:34 PM -18.9260 -42.2370 67° East 466 536 30,300 1,325 Climbing FlightAware ADS-B
Sat 02:42:16 PM -18.8930 -42.1530 67° East 462 532 31,300 1,297 Climbing FlightAware ADS-B
Sat 02:42:48 PM -18.8670 -42.0870 67° East 461 531 31,900 1,043 Climbing FlightAware ADS-B
Sat 02:43:25 PM -18.8340 -42.0060 67° East 462 532 32,500 917 Climbing FlightAware ADS-B
Sat 02:44:00 PM -18.8050 -41.9330 67° East 449 517 33,000 429 Climbing FlightAware ADS-B
Sat 02:44:35 PM -18.7800 -41.8700 67° East 447 514 33,000  Level FlightAware ADS-B
Sat 02:45:08 PM -18.7530 -41.8030 67° East 448 516 33,000  Level FlightAware ADS-B
Sat 02:45:44 PM -18.7230 -41.7290 67° East 448 516 33,000  Level FlightAware ADS-B
Sat 02:46:23 PM -18.6900 -41.6470 67° East 448 516 33,000  Level FlightAware ADS-B
Sat 02:46:59 PM -18.6610 -41.5750 67° East 449 517 33,000  Level FlightAware ADS-B
Sat 02:47:29 PM -18.6370 -41.5150 67° East 449 517 33,000  Level FlightAware ADS-B
Sat 02:48:08 PM -18.6060 -41.4370 67° East 447 514 33,000  Level FlightAware ADS-B
Sat 02:48:43 PM -18.5780 -41.3670 67° East 445 512 33,000  Level FlightAware ADS-B
Sat 02:49:14 PM -18.5530 -41.3050 67° East 445 512 33,000  Level FlightAware ADS-B
Sat 02:49:48 PM -18.5250 -41.2370 67° East 445 512 33,000  Level FlightAware ADS-B
Sat 02:50:23 PM -18.4980 -41.1710 67° East 445 512 33,000  Level FlightAware ADS-B
Sat 02:51:05 PM -18.4620 -41.0810 67° East 445 512 33,000  Level FlightAware ADS-B
Sat 02:51:35 PM -18.4380 -41.0220 67° East 447 514 33,000  Level FlightAware ADS-B
Sat 02:52:15 PM -18.4050 -40.9410 67° East 447 514 33,000  Level FlightAware ADS-B
Sat 02:52:45 PM -18.3810 -40.8810 67° East 447 514 33,000  Level FlightAware ADS-B
Sat 02:53:25 PM -18.3490 -40.8020 67° East 448 516 33,000  Level FlightAware ADS-B
Sat 02:54:05 PM -18.3160 -40.7210 67° East 449 517 33,000  Level FlightAware ADS-B
Sat 02:54:38 PM -18.2950 -40.6690 67° East 449 517 33,000  Level FlightAware ADS-B
Sat 02:55:15 PM -18.2690 -40.6060 67° East 449 517 33,000  Level FlightAware ADS-B
Sat 02:55:45 PM -18.2680 -40.6060 360° North 327 376 33,000  Level FlightAware ADS-B
Sat 02:58:00 PM -18.1266 -40.4867 39° Northeast  Level Estimated
Sat 02:58:05 PM -18.1560 -40.3330 39° Northeast 451 519 33,000  Level FlightAware ADS-B
Sat 02:58:43 PM -18.1290 -40.2680 66° East 451 519 33,000  Level FlightAware ADS-B
Sat 02:58:54 PM -18.1010 -40.2250 56° Northeast 457 526 33,000  Level FlightAware ADS-B
Sat 02:59:06 PM -18.0810 -40.2060 42° Northeast 461 531 33,000  Level FlightAware ADS-B
Sat 02:59:38 PM -18.0220 -40.1640 34° Northeast 461 531 33,000 -833 Level FlightAware ADS-B
Sat 03:00:18 PM -17.9370 -40.1050 33° Northeast 459 528 32,000 -904 Descending FlightAware ADS-B
Sat 03:00:51 PM -17.8940 -40.0780 31° Northeast 466 536 31,900 -87 Descending FlightAware ADS-B
Sat 03:01:27 PM -17.8380 -40.0420 31° Northeast 466 536 31,900 -4,324 Level FlightAware ADS-B
Sat 03:01:59 PM -17.7670 -40.0000 29° Northeast 470 541 27,000 -4,261 Descending FlightAware ADS-B
Sat 03:02:36 PM -17.7070 -39.9640 30° Northeast 470 541 27,000  Level FlightAware ADS-B
Sat 03:03:12 PM -17.6500 -39.9290 30° Northeast 470 541 27,000  Level FlightAware ADS-B
Sat 03:03:48 PM -17.5920 -39.8940 30° Northeast 470 541 27,000 -4,026 Level FlightAware ADS-B
Sat 03:04:28 PM -17.5330 -39.8540 33° Northeast 410 472 21,900 -7,650 Descending FlightAware ADS-B
Sat 03:07:00 PM -17.3641 -39.7340 34° Northeast  Level Estimated
Sat 03:08:00 PM -17.2974 -39.6866 34° Northeast  Level Estimated
Sat 03:09:00 PM -17.2307 -39.6394 34° Northeast  Level Estimated
Sat 03:10:00 PM -17.1640 -39.5921 34° Northeast  Level Estimated
Sat 03:11:00 PM -17.0973 -39.5449 34° Northeast  Level Estimated
Sat 03:12:00 PM -17.0306 -39.4977 34° Northeast  Level Estimated
Sat 03:13:00 PM -16.9638 -39.4505 34° Northeast  Level Estimated
Sat 03:14:00 PM -16.8971 -39.4034 34° Northeast  Level Estimated
Sat 03:15:00 PM -16.8303 -39.3563 34° Northeast  Level Estimated
Sat 03:16:00 PM -16.7635 -39.3093 34° Northeast  Level Estimated
Sat 03:17:00 PM -16.6967 -39.2622 34° Northeast  Level Estimated
Sat 03:18:00 PM -16.6299 -39.2153 34° Northeast  Level Estimated
Sat 03:19:00 PM -16.5631 -39.1683 34° Northeast  Level Estimated
Sat 03:20:00 PM -16.4963 -39.1214 34° Northeast  Level Estimated
Sat 03:21:00 PM -16.4386 -39.0809 34° Northeast  Level Estimated
Sat 03:22:00 PM -16.4386 -39.0809 71° East  Level Estimated
Sat 03:23:00 PM -16.4386 -39.0809 71° East  Level Estimated
Sat 03:24:00 PM -16.4386 -39.0809 71° East  Level Estimated
Sat 03:25:00 PM -16.4386 -39.0809 71° East  Level Estimated
Sat 03:26:00 PM -16.4386 -39.0809 71° East  Level Estimated
Sat 03:27:00 PM -16.4386 -39.0809 71° East  Level Estimated
Sat 03:28:00 PM -16.4386 -39.0809 71° East  Level Estimated
Sat 03:29:00 PM -16.4386 -39.0809 71° East  Level Estimated
Sat 03:30:00 PM -16.4386 -39.0809 71° East  Level Estimated
Sat 03:31:00 PM -16.4386 -39.0809 71° East  Level Estimated
Sat 03:32:00 PM -16.4386 -39.0809 71° East  Level Estimated
Sat 03:33:00 PM -16.4386 -39.0809 71° East  Level Estimated
Sat 03:34:00 PM -16.4386 -39.0809 71° East  Level Estimated
Sat 03:35:00 PM -16.4386 -39.0809 71° East  Level Estimated
Sat 03:36:00 PM -16.4386 -39.0809 71° East  Level Estimated
Sat 03:37:00 PM -16.4386 -39.0809 71° East  Level Estimated
Sat 03:38:00 PM -16.4386 -39.0809 71° East  Level Estimated
Sat 03:39:00 PM -16.4386 -39.0809 71° East  Level Estimated
Sat 03:40:00 PM -16.4386 -39.0809 71° East  Level Estimated
Sat 03:41:00 PM -16.4386 -39.0809 71° East  Level Estimated
Sat 03:42:00 PM -16.4386 -39.0809 71° East  Level Estimated
Sat 03:43:00 PM -16.4386 -39.0809 71° East  Level Estimated
Sat 03:44:00 PM -16.4386 -39.0809 71° East  Level Estimated
Sat 03:45:00 PM -16.4386 -39.0809 71° East  Level Estimated
Sat 03:46:00 PM -16.4386 -39.0809 71° East  Level Estimated
Sat 03:47:00 PM -16.4386 -39.0809 71° East  Level Estimated
Sat 03:48:00 PM -16.4386 -39.0809 71° East  Level Estimated

Login

Don't have an account? Register now (free) for customized features, flight alerts, and more!